Terminal Aerodrome Forecast
Issued by NWS Cleveland, OH

Home | Current Version | Previous Version | Graphics & Text | Print | Product List | Glossary On
Versions: 1 2 3 4 5 6 7 8 9 10 11 12 13 14 15 16 17 18 19 20 21 22 23 24 25
000
FTUS41 KCLE 121441 AAB
TAFCAK
TAF AMD
KCAK 121441Z 1215/1312 31015G25KT 2SM -SHSN SCT012 OVC025
      TEMPO 1215/1217 30015KT 3/4SM -SN OVC012
     FM121800 31018G28KT P6SM OVC025
     FM122200 30015G25KT 3SM -SHSN OVC012=

USA.gov is the U.S. government's official web portal to all federal, state and local government web resources and services.